Terminal Aerodrome Forecast
Issued by NWS Lubbock, TX

Home | Current Version | Previous Version | Text Only | Print | Product List | Glossary On
Versions: 1 2 3 4 5 6 7 8 9 10 11 12 13 14
270
FTUS44 KLUB 272320
TAFLBB
TAF
KLBB 272320Z 2800/2824 16011KT P6SM SKC
     FM280800 12011KT P6SM SKC WS020/15040KT
     FM281100 12011KT 3SM BR BKN008
     FM281900 20020G30KT P6SM SCT250=

USA.gov is the U.S. government's official web portal to all federal, state and local government web resources and services.